createdAt,value
2023-01-03T00:00:31.829Z,9.60
2023-01-03T00:01:34.382Z,9.49
2023-01-03T00:02:36.928Z,9.54
2023-01-03T00:03:38.504Z,9.62
2023-01-03T00:04:47.469Z,9.73
2023-01-03T00:05:50.791Z,9.48
2023-01-03T00:06:54.386Z,9.60
2023-01-03T00:07:56.193Z,9.73
2023-01-03T00:09:03.448Z,9.69
2023-01-03T00:10:09.901Z,9.56
2023-01-03T00:11:13.898Z,9.47
2023-01-03T00:12:30.230Z,9.16
2023-01-03T00:13:32.534Z,9.29
2023-01-03T00:14:37.411Z,9.34
2023-01-03T00:15:39.027Z,9.46
2023-01-03T00:16:41.703Z,9.46
2023-01-03T00:17:44.449Z,9.41
2023-01-03T00:18:46.560Z,9.42
2023-01-03T00:19:50.462Z,9.33
2023-01-03T00:20:52.044Z,9.43
2023-01-03T00:21:55.331Z,9.66
2023-01-03T00:22:59.912Z,9.54
2023-01-03T00:24:02.002Z,9.55
2023-01-03T00:25:04.891Z,9.72
2023-01-03T00:26:10.848Z,9.65
2023-01-03T00:27:13.864Z,9.53
2023-01-03T00:28:15.398Z,9.60
2023-01-03T00:29:17.971Z,9.36
2023-01-03T00:30:19.501Z,9.47
2023-01-03T00:31:21.996Z,9.40
2023-01-03T00:32:24.538Z,9.16
2023-01-03T00:33:26.063Z,9.31
2023-01-03T00:34:28.966Z,9.41
2023-01-03T00:35:32.302Z,9.65
2023-01-03T00:36:35.597Z,9.75
2023-01-03T00:37:37.207Z,9.73
2023-01-03T00:38:39.747Z,9.78
2023-01-03T00:39:41.759Z,9.77
2023-01-03T00:40:44.356Z,9.94
2023-01-03T00:41:45.996Z,9.90
2023-01-03T00:43:06.116Z,9.72
2023-01-03T00:44:09.544Z,9.71
2023-01-03T00:45:13.212Z,9.79
2023-01-03T00:46:19.743Z,9.92
2023-01-03T00:47:21.548Z,10.10
2023-01-03T00:48:24.522Z,10.09
2023-01-03T00:49:27.350Z,10.04
2023-01-03T00:50:28.822Z,10.21
2023-01-03T00:51:33.932Z,10.16
2023-01-03T00:52:35.453Z,10.09
2023-01-03T00:53:39.209Z,10.03
2023-01-03T00:54:40.690Z,10.11
2023-01-03T00:55:43.549Z,10.20
2023-01-03T00:56:46.640Z,10.10
2023-01-03T00:57:49.113Z,10.18
2023-01-03T00:58:51.158Z,10.24
2023-01-03T00:59:53.752Z,9.60
2023-01-03T01:00:55.222Z,9.76
2023-01-03T01:01:58.619Z,9.82
2023-01-03T01:03:00.526Z,9.78
2023-01-03T01:04:06.686Z,9.90
2023-01-03T01:05:11.242Z,9.83
2023-01-03T01:06:16.000Z,9.99
2023-01-03T01:07:18.813Z,10.17
2023-01-03T01:08:21.265Z,9.98
2023-01-03T01:09:24.907Z,9.77
2023-01-03T01:10:27.366Z,9.85
2023-01-03T01:11:29.723Z,9.52
2023-01-03T01:12:32.154Z,9.66
2023-01-03T01:13:34.748Z,9.78
2023-01-03T01:14:37.335Z,9.74
2023-01-03T01:15:39.095Z,9.25
2023-01-03T01:16:41.564Z,9.10
2023-01-03T01:17:43.266Z,8.82
2023-01-03T01:18:48.764Z,8.57
2023-01-03T01:19:51.210Z,8.51
2023-01-03T01:20:52.723Z,8.14
2023-01-03T01:21:55.620Z,8.09
2023-01-03T01:22:58.477Z,8.35
2023-01-03T01:24:01.069Z,8.51
2023-01-03T01:25:03.210Z,8.38
2023-01-03T01:26:07.422Z,8.44
2023-01-03T01:27:10.449Z,8.43
2023-01-03T01:28:12.029Z,8.17
2023-01-03T01:29:16.366Z,8.23
2023-01-03T01:30:17.884Z,8.43
2023-01-03T01:31:22.037Z,8.73
2023-01-03T01:32:25.488Z,8.67
2023-01-03T01:33:28.710Z,8.55
2023-01-03T01:34:31.796Z,8.59
2023-01-03T01:35:33.444Z,8.87
2023-01-03T01:36:38.251Z,8.56
2023-01-03T01:37:39.749Z,8.23
2023-01-03T01:38:43.876Z,8.21
2023-01-03T01:39:45.379Z,8.43
2023-01-03T01:40:48.009Z,8.64
2023-01-03T01:42:13.700Z,8.64
2023-01-03T01:43:39.447Z,8.62
2023-01-03T01:44:52.966Z,8.68
2023-01-03T01:45:55.465Z,8.73
2023-01-03T01:46:57.349Z,8.65
2023-01-03T01:48:03.789Z,8.58
2023-01-03T01:49:11.334Z,8.51
2023-01-03T01:50:32.344Z,8.74
2023-01-03T01:51:35.904Z,8.77
2023-01-03T01:52:41.664Z,8.84
2023-01-03T01:53:44.737Z,8.84
2023-01-03T01:54:49.453Z,8.98
2023-01-03T01:55:53.726Z,8.71
2023-01-03T01:56:56.263Z,8.76
2023-01-03T01:57:57.923Z,8.85
2023-01-03T01:59:00.468Z,8.74
2023-01-03T02:00:02.100Z,8.79
2023-01-03T02:01:06.393Z,8.96
2023-01-03T02:02:09.693Z,8.99
2023-01-03T02:03:13.324Z,9.03
2023-01-03T02:04:20.925Z,8.83
2023-01-03T02:05:24.051Z,8.95
2023-01-03T02:06:25.600Z,8.99
2023-01-03T02:07:28.112Z,8.99
2023-01-03T02:08:29.676Z,8.78
2023-01-03T02:09:35.429Z,8.95
2023-01-03T02:10:57.606Z,9.28
2023-01-03T02:12:27.889Z,9.24
2023-01-03T02:13:37.679Z,9.17
2023-01-03T02:14:58.759Z,9.30
2023-01-03T02:16:20.699Z,9.25
2023-01-03T02:17:32.569Z,9.25
2023-01-03T02:18:47.726Z,9.24
2023-01-03T02:20:02.631Z,9.01
2023-01-03T02:21:34.467Z,8.91
2023-01-03T02:23:07.524Z,8.95
2023-01-03T02:24:34.449Z,9.05
2023-01-03T02:26:04.434Z,9.22
2023-01-03T02:27:31.271Z,9.21
2023-01-03T02:29:11.736Z,8.90
2023-01-03T02:30:30.251Z,9.18
2023-01-03T02:31:40.294Z,9.03
2023-01-03T02:32:50.552Z,9.09
2023-01-03T02:34:02.359Z,8.91
2023-01-03T02:35:08.861Z,8.65
2023-01-03T02:36:21.385Z,8.45
2023-01-03T02:37:34.491Z,8.63
2023-01-03T02:38:49.422Z,8.78
2023-01-03T02:39:58.612Z,8.95
2023-01-03T02:41:07.865Z,9.00
2023-01-03T02:42:33.131Z,8.91
2023-01-03T02:43:43.601Z,8.96
2023-01-03T02:44:54.348Z,8.66
2023-01-03T02:46:08.395Z,8.85
2023-01-03T02:47:14.791Z,8.83
2023-01-03T02:48:24.698Z,8.83
2023-01-03T02:49:32.419Z,8.89
2023-01-03T02:50:41.715Z,8.83
2023-01-03T02:51:49.592Z,8.86
2023-01-03T02:52:54.997Z,8.73
2023-01-03T02:53:59.412Z,8.72
2023-01-03T02:55:06.526Z,8.35
2023-01-03T02:56:13.887Z,8.15
2023-01-03T02:57:18.313Z,7.64
2023-01-03T02:58:24.890Z,7.88
2023-01-03T02:59:33.158Z,8.13
2023-01-03T03:00:41.360Z,8.32
2023-01-03T03:01:45.089Z,8.52
2023-01-03T03:02:51.874Z,8.42
2023-01-03T03:03:54.504Z,8.47
2023-01-03T03:04:58.792Z,8.43
2023-01-03T03:06:11.810Z,8.19
2023-01-03T03:07:19.796Z,7.84
2023-01-03T03:08:21.477Z,7.84
2023-01-03T03:09:24.670Z,8.09
2023-01-03T03:10:41.880Z,8.15
2023-01-03T03:12:02.572Z,7.78
2023-01-03T03:13:14.836Z,7.88
2023-01-03T03:14:23.738Z,7.92
2023-01-03T03:15:32.250Z,7.93
2023-01-03T03:16:50.526Z,7.94
2023-01-03T03:17:58.480Z,7.83
2023-01-03T03:19:02.972Z,7.92
2023-01-03T03:20:31.242Z,7.89
2023-01-03T03:21:55.196Z,7.75
2023-01-03T03:23:21.269Z,7.85
2023-01-03T03:24:47.761Z,7.89
2023-01-03T03:25:55.484Z,7.86
2023-01-03T03:26:59.821Z,7.99
2023-01-03T03:28:23.833Z,7.67
2023-01-03T03:29:29.253Z,7.80
2023-01-03T03:30:33.312Z,7.81
2023-01-03T03:31:40.553Z,7.86
2023-01-03T03:32:44.859Z,7.92
2023-01-03T03:33:53.599Z,7.87
2023-01-03T03:34:57.971Z,7.82
2023-01-03T03:36:07.480Z,7.72
2023-01-03T03:37:14.440Z,7.84
2023-01-03T03:38:23.847Z,7.59
2023-01-03T03:39:45.722Z,7.77
2023-01-03T03:41:15.944Z,7.79
2023-01-03T03:43:01.707Z,7.84
2023-01-03T03:44:30.203Z,7.87
2023-01-03T03:45:38.702Z,7.85
2023-01-03T03:46:54.790Z,7.71
2023-01-03T03:48:01.958Z,7.58
2023-01-03T03:49:29.274Z,7.76
2023-01-03T03:50:36.590Z,7.79
2023-01-03T03:51:41.058Z,7.74
2023-01-03T03:52:47.557Z,7.84
2023-01-03T03:53:51.034Z,7.86
2023-01-03T03:54:58.576Z,7.67
2023-01-03T03:56:05.550Z,7.88
2023-01-03T03:57:14.592Z,7.83
2023-01-03T03:58:21.524Z,7.94
2023-01-03T03:59:25.694Z,8.02
2023-01-03T04:00:31.425Z,8.12
2023-01-03T04:01:36.964Z,8.38
2023-01-03T04:02:40.279Z,8.54
2023-01-03T04:03:45.229Z,8.55
2023-01-03T04:04:49.960Z,8.06
2023-01-03T04:05:57.882Z,7.79
2023-01-03T04:06:59.946Z,7.59
2023-01-03T04:08:02.639Z,7.71
2023-01-03T04:09:04.310Z,8.00
2023-01-03T04:10:09.073Z,8.22
2023-01-03T04:11:10.784Z,8.37
2023-01-03T04:12:13.244Z,8.50
2023-01-03T04:13:14.765Z,8.58
2023-01-03T04:14:17.452Z,8.68
2023-01-03T04:15:19.367Z,8.68
2023-01-03T04:16:21.876Z,8.74
2023-01-03T04:17:23.455Z,8.77
2023-01-03T04:18:25.948Z,8.59
2023-01-03T04:19:27.592Z,8.76
2023-01-03T04:20:31.495Z,8.82
2023-01-03T04:21:33.146Z,8.71
2023-01-03T04:22:35.670Z,8.25
2023-01-03T04:23:37.381Z,7.98
2023-01-03T04:24:39.918Z,8.14
2023-01-03T04:25:41.405Z,8.23
2023-01-03T04:26:43.870Z,8.31
2023-01-03T04:27:45.756Z,8.40
2023-01-03T04:28:48.498Z,8.51
2023-01-03T04:29:50.034Z,7.77
2023-01-03T04:30:52.678Z,7.69
2023-01-03T04:31:54.341Z,7.84
2023-01-03T04:32:57.302Z,7.96
2023-01-03T04:34:01.457Z,7.27
2023-01-03T04:35:04.511Z,7.10
2023-01-03T04:36:08.504Z,6.75
2023-01-03T04:37:11.127Z,6.66
2023-01-03T04:38:13.718Z,6.60
2023-01-03T04:39:15.245Z,6.68
2023-01-03T04:40:17.779Z,6.56
2023-01-03T04:41:19.520Z,6.36
2023-01-03T04:42:39.849Z,6.68
2023-01-03T04:44:00.164Z,7.03
2023-01-03T04:45:02.646Z,7.29
2023-01-03T04:46:04.349Z,7.53
2023-01-03T04:47:06.863Z,7.65
2023-01-03T04:48:08.388Z,7.67
2023-01-03T04:49:11.679Z,7.50
2023-01-03T04:50:16.247Z,7.35
2023-01-03T04:51:20.041Z,7.51
2023-01-03T04:52:21.517Z,7.65
2023-01-03T04:53:25.548Z,7.42
2023-01-03T04:54:27.980Z,7.06
2023-01-03T04:55:29.549Z,6.93
2023-01-03T04:56:33.821Z,7.14
2023-01-03T04:57:36.415Z,6.87
2023-01-03T04:58:39.484Z,6.62
2023-01-03T04:59:41.103Z,6.61
2023-01-03T05:00:43.735Z,6.36
2023-01-03T05:01:52.233Z,6.58
2023-01-03T05:02:54.142Z,6.37
2023-01-03T05:03:59.718Z,5.91
2023-01-03T05:05:01.318Z,5.87
2023-01-03T05:06:05.924Z,5.97
2023-01-03T05:07:08.986Z,5.91
2023-01-03T05:08:14.037Z,6.05
2023-01-03T05:09:16.548Z,6.05
2023-01-03T05:10:18.369Z,5.83
2023-01-03T05:11:20.964Z,5.59
2023-01-03T05:12:22.646Z,5.41
2023-01-03T05:13:25.247Z,5.33
2023-01-03T05:14:26.767Z,5.42
2023-01-03T05:15:30.154Z,5.49
2023-01-03T05:16:32.090Z,5.76
2023-01-03T05:17:34.616Z,5.68
2023-01-03T05:18:37.106Z,5.54
2023-01-03T05:20:00.141Z,5.51
2023-01-03T05:21:21.727Z,5.92
2023-01-03T05:22:43.424Z,6.25
2023-01-03T05:24:03.344Z,5.59
2023-01-03T05:25:24.362Z,5.84
2023-01-03T05:26:26.901Z,5.79
2023-01-03T05:27:29.477Z,5.84
2023-01-03T05:28:31.113Z,6.21
2023-01-03T05:29:36.181Z,6.44
2023-01-03T05:30:37.651Z,6.55
2023-01-03T05:31:40.438Z,6.53
2023-01-03T05:32:42.167Z,6.12
2023-01-03T05:33:44.715Z,6.05
2023-01-03T05:34:46.631Z,6.12
2023-01-03T05:35:49.177Z,5.73
2023-01-03T05:36:51.634Z,5.62
2023-01-03T05:37:54.506Z,5.51
2023-01-03T05:38:57.353Z,5.46
2023-01-03T05:39:58.849Z,5.33
2023-01-03T05:41:01.651Z,5.10
2023-01-03T05:42:06.015Z,5.35
2023-01-03T05:43:07.603Z,5.11
2023-01-03T05:44:12.639Z,4.95
2023-01-03T05:45:14.191Z,4.85
2023-01-03T05:46:17.133Z,4.98
2023-01-03T05:47:18.809Z,5.18
2023-01-03T05:48:22.828Z,5.28
2023-01-03T05:49:24.391Z,5.38
2023-01-03T05:50:26.849Z,5.46
2023-01-03T05:51:28.399Z,5.44
2023-01-03T05:52:30.864Z,5.39
2023-01-03T05:53:34.011Z,5.29
2023-01-03T05:54:36.443Z,5.52
2023-01-03T05:55:38.498Z,5.20
2023-01-03T05:56:41.216Z,5.37
2023-01-03T05:57:43.162Z,5.66
2023-01-03T05:58:45.669Z,5.79
2023-01-03T05:59:48.227Z,5.90
2023-01-03T06:00:49.768Z,6.06
2023-01-03T06:01:52.461Z,6.05
2023-01-03T06:02:54.343Z,5.97
2023-01-03T06:03:56.995Z,5.84
2023-01-03T06:04:58.559Z,5.99
2023-01-03T06:06:05.503Z,5.96
2023-01-03T06:07:07.009Z,5.85
2023-01-03T06:08:09.505Z,6.11
2023-01-03T06:09:12.953Z,6.03
2023-01-03T06:10:15.593Z,6.14
2023-01-03T06:11:18.239Z,6.23
2023-01-03T06:12:20.804Z,6.31
2023-01-03T06:13:23.987Z,6.40
2023-01-03T06:14:26.736Z,6.52
2023-01-03T06:15:28.199Z,6.56
2023-01-03T06:16:48.303Z,6.55
2023-01-03T06:17:57.988Z,6.64
2023-01-03T06:19:04.917Z,6.72
2023-01-03T06:20:07.309Z,6.63
2023-01-03T06:21:09.846Z,6.64
2023-01-03T06:22:12.280Z,6.40
2023-01-03T06:23:14.711Z,6.53
2023-01-03T06:24:17.802Z,6.49
2023-01-03T06:25:20.445Z,6.51
2023-01-03T06:26:24.551Z,6.65
2023-01-03T06:27:27.042Z,6.73
2023-01-03T06:28:28.628Z,6.44
2023-01-03T06:29:31.248Z,6.29
2023-01-03T06:30:32.749Z,5.91
2023-01-03T06:31:35.387Z,5.52
2023-01-03T06:32:37.033Z,5.33
2023-01-03T06:33:40.491Z,4.98
2023-01-03T06:34:42.106Z,4.90
2023-01-03T06:35:44.555Z,4.87
2023-01-03T06:36:46.099Z,5.19
2023-01-03T06:37:48.572Z,5.36
2023-01-03T06:38:50.169Z,5.38
2023-01-03T06:39:54.354Z,5.65
2023-01-03T06:40:55.866Z,5.35
2023-01-03T06:41:58.358Z,4.96
2023-01-03T06:42:59.969Z,4.72
2023-01-03T06:44:02.391Z,4.69
2023-01-03T06:45:23.676Z,4.52
2023-01-03T06:46:43.997Z,4.22
2023-01-03T06:48:04.327Z,4.01
2023-01-03T06:49:32.068Z,4.04
2023-01-03T06:50:52.246Z,4.14
2023-01-03T06:52:12.308Z,4.05
2023-01-03T06:53:17.027Z,3.87
2023-01-03T06:54:23.200Z,3.76
2023-01-03T06:55:26.040Z,3.76
2023-01-03T06:56:28.685Z,3.79
2023-01-03T06:57:30.161Z,3.87
2023-01-03T06:58:33.159Z,3.95
2023-01-03T06:59:34.636Z,4.01
2023-01-03T07:00:39.139Z,3.91
2023-01-03T07:01:40.807Z,3.79
2023-01-03T07:02:43.533Z,3.80
2023-01-03T07:03:45.140Z,3.88
2023-01-03T07:04:47.631Z,4.17
2023-01-03T07:05:49.203Z,3.91
2023-01-03T07:06:51.763Z,3.98
2023-01-03T07:07:56.300Z,4.08
2023-01-03T07:08:58.741Z,4.11
2023-01-03T07:10:00.282Z,4.08
2023-01-03T07:11:04.198Z,4.18
2023-01-03T07:12:21.577Z,4.43
2023-01-03T07:13:42.597Z,4.51
2023-01-03T07:14:44.967Z,4.37
2023-01-03T07:15:46.782Z,4.27
2023-01-03T07:16:49.907Z,4.25
2023-01-03T07:17:51.467Z,4.42
2023-01-03T07:18:55.573Z,4.67
2023-01-03T07:19:57.261Z,4.99
2023-01-03T07:20:59.732Z,5.08
2023-01-03T07:22:02.186Z,4.47
2023-01-03T07:23:03.710Z,4.62
2023-01-03T07:24:08.781Z,4.25
2023-01-03T07:25:10.501Z,4.20
2023-01-03T07:26:14.305Z,4.12
2023-01-03T07:27:16.086Z,4.03
2023-01-03T07:28:18.610Z,4.06
2023-01-03T07:29:20.274Z,4.07
2023-01-03T07:30:24.944Z,4.23
2023-01-03T07:31:26.621Z,4.49
2023-01-03T07:32:29.213Z,4.66
2023-01-03T07:33:32.964Z,4.98
2023-01-03T07:34:36.087Z,5.24
2023-01-03T07:35:37.914Z,5.41
2023-01-03T07:36:40.368Z,5.62
2023-01-03T07:37:41.835Z,5.81
2023-01-03T07:38:45.756Z,5.91
2023-01-03T07:39:47.254Z,6.03
2023-01-03T07:40:49.656Z,6.10
2023-01-03T07:42:11.333Z,6.12
2023-01-03T07:43:31.333Z,6.13
2023-01-03T07:44:33.752Z,6.14
2023-01-03T07:45:35.298Z,6.18
2023-01-03T07:46:37.846Z,6.25
2023-01-03T07:47:44.028Z,6.29
2023-01-03T07:48:48.920Z,6.31
2023-01-03T07:49:50.442Z,6.34
2023-01-03T07:50:58.659Z,6.32
2023-01-03T07:52:01.108Z,6.39
2023-01-03T07:53:03.036Z,6.43
2023-01-03T07:54:05.621Z,6.40
2023-01-03T07:55:07.557Z,6.39
2023-01-03T07:56:13.497Z,6.36
2023-01-03T07:57:16.513Z,6.37
2023-01-03T07:58:19.048Z,6.45
2023-01-03T07:59:21.557Z,6.48
2023-01-03T08:00:23.616Z,6.50
2023-01-03T08:01:26.804Z,6.50
2023-01-03T08:02:29.471Z,6.49
2023-01-03T08:03:32.600Z,6.59
2023-01-03T08:04:35.116Z,6.45
2023-01-03T08:05:37.777Z,6.50
2023-01-03T08:06:40.352Z,6.49
2023-01-03T08:07:41.856Z,6.48
2023-01-03T08:08:45.967Z,6.52
2023-01-03T08:10:05.826Z,6.50
2023-01-03T08:11:28.758Z,6.46
2023-01-03T08:12:50.236Z,6.46
2023-01-03T08:13:53.010Z,6.45
2023-01-03T08:14:54.506Z,6.37
2023-01-03T08:15:58.052Z,6.38
2023-01-03T08:16:59.598Z,6.32
2023-01-03T08:18:02.033Z,6.39
2023-01-03T08:19:04.530Z,6.43
2023-01-03T08:20:07.404Z,6.40
2023-01-03T08:21:12.126Z,6.48
2023-01-03T08:22:13.661Z,6.53
2023-01-03T08:23:16.489Z,6.66
2023-01-03T08:24:19.067Z,6.77
2023-01-03T08:25:21.004Z,6.82
2023-01-03T08:26:23.506Z,6.71
2023-01-03T08:27:25.044Z,6.66
2023-01-03T08:28:28.931Z,6.60
2023-01-03T08:29:31.538Z,6.70
2023-01-03T08:30:37.692Z,6.83
2023-01-03T08:31:43.952Z,6.92
2023-01-03T08:32:45.752Z,6.92
2023-01-03T08:33:51.245Z,6.77
2023-01-03T08:34:54.307Z,6.82
2023-01-03T08:36:01.902Z,6.71
2023-01-03T08:37:10.409Z,6.61
2023-01-03T08:38:17.243Z,6.60
2023-01-03T08:39:24.233Z,6.51
2023-01-03T08:40:26.847Z,6.29
2023-01-03T08:41:32.630Z,6.27
2023-01-03T08:42:34.408Z,6.47
2023-01-03T08:43:41.915Z,6.70
2023-01-03T08:44:45.028Z,6.83
2023-01-03T08:45:51.386Z,6.87
2023-01-03T08:46:56.528Z,7.04
2023-01-03T08:48:01.429Z,7.15
2023-01-03T08:49:04.066Z,7.24
2023-01-03T08:50:07.986Z,7.35
2023-01-03T08:51:10.559Z,7.41
2023-01-03T08:52:12.111Z,7.48
2023-01-03T08:53:14.582Z,7.51
2023-01-03T08:54:16.128Z,7.52
2023-01-03T08:55:18.574Z,7.35
2023-01-03T08:56:21.211Z,7.42
2023-01-03T08:57:22.758Z,7.18
2023-01-03T08:58:25.237Z,7.14
2023-01-03T08:59:28.168Z,7.11
2023-01-03T09:00:30.640Z,7.32
2023-01-03T09:01:32.271Z,7.48
2023-01-03T09:02:35.768Z,7.58
2023-01-03T09:03:38.536Z,7.72
2023-01-03T09:04:40.176Z,7.84
2023-01-03T09:05:42.642Z,7.92
2023-01-03T09:06:44.323Z,7.94
2023-01-03T09:07:46.818Z,8.01
2023-01-03T09:08:48.438Z,8.11
2023-01-03T09:09:50.952Z,8.15
2023-01-03T09:10:53.411Z,8.04
2023-01-03T09:11:54.888Z,7.95
2023-01-03T09:12:57.312Z,8.06
2023-01-03T09:13:58.890Z,7.99
2023-01-03T09:15:02.778Z,8.07
2023-01-03T09:16:06.829Z,8.09
2023-01-03T09:17:08.371Z,8.22
2023-01-03T09:18:11.065Z,8.28
2023-01-03T09:19:13.473Z,8.19
2023-01-03T09:20:18.393Z,8.23
2023-01-03T09:21:20.870Z,8.27
2023-01-03T09:22:23.364Z,8.36
2023-01-03T09:23:26.319Z,8.37
2023-01-03T09:24:29.824Z,8.52
2023-01-03T09:25:37.108Z,8.56
2023-01-03T09:26:39.113Z,8.61
2023-01-03T09:27:45.619Z,8.68
2023-01-03T09:28:47.265Z,8.71
2023-01-03T09:29:49.789Z,8.69
2023-01-03T09:30:52.621Z,8.51
2023-01-03T09:31:55.096Z,8.24
2023-01-03T09:32:58.534Z,8.44
2023-01-03T09:34:02.719Z,8.48
2023-01-03T09:35:05.896Z,8.62
2023-01-03T09:36:08.005Z,8.68
2023-01-03T09:37:10.485Z,8.79
2023-01-03T09:38:14.703Z,8.85
2023-01-03T09:39:16.247Z,8.87
2023-01-03T09:40:19.168Z,8.81
2023-01-03T09:41:23.464Z,8.89
2023-01-03T09:42:45.902Z,9.00
2023-01-03T09:43:51.856Z,9.18
2023-01-03T09:44:55.017Z,9.12
2023-01-03T09:46:01.314Z,9.28
2023-01-03T09:47:04.649Z,9.29
2023-01-03T09:48:07.514Z,9.43
2023-01-03T09:49:15.013Z,9.54
2023-01-03T09:50:38.899Z,9.60
2023-01-03T09:52:03.899Z,9.54
2023-01-03T09:53:32.337Z,9.65
2023-01-03T09:54:57.051Z,9.61
2023-01-03T09:56:21.093Z,9.63
2023-01-03T09:57:45.607Z,9.82
2023-01-03T09:59:18.917Z,9.95
2023-01-03T10:00:45.392Z,10.16
2023-01-03T10:02:25.468Z,10.17
2023-01-03T10:03:51.573Z,10.18
2023-01-03T10:05:22.452Z,10.13
2023-01-03T10:06:35.457Z,10.12
2023-01-03T10:07:55.883Z,9.94
2023-01-03T10:09:12.816Z,9.95
2023-01-03T10:10:21.696Z,10.19
2023-01-03T10:11:33.330Z,10.04
2023-01-03T10:12:45.654Z,9.75
2023-01-03T10:13:59.460Z,9.83
2023-01-03T10:15:15.706Z,10.40
2023-01-03T10:16:27.109Z,10.53
2023-01-03T10:17:36.744Z,10.75
2023-01-03T10:19:00.237Z,10.49
2023-01-03T10:20:28.058Z,10.77
2023-01-03T10:21:46.273Z,11.04
2023-01-03T10:22:49.713Z,11.18
2023-01-03T10:23:54.971Z,11.97
2023-01-03T10:25:06.783Z,12.59
2023-01-03T10:26:13.482Z,12.51
2023-01-03T10:27:18.866Z,13.11
2023-01-03T10:28:25.029Z,13.79
2023-01-03T10:29:27.439Z,14.27
2023-01-03T10:30:38.727Z,14.59
2023-01-03T10:31:55.280Z,14.60
2023-01-03T10:33:26.387Z,15.01
2023-01-03T10:34:28.853Z,14.30
2023-01-03T10:35:33.086Z,13.99
2023-01-03T10:36:35.569Z,13.97
2023-01-03T10:37:39.868Z,13.68
2023-01-03T10:38:51.502Z,13.32
2023-01-03T10:40:04.908Z,13.39
2023-01-03T10:41:17.856Z,13.26
2023-01-03T10:42:20.345Z,13.18
2023-01-03T10:43:29.443Z,12.82
2023-01-03T10:44:33.723Z,12.49
2023-01-03T10:45:50.280Z,11.88
2023-01-03T10:46:54.651Z,11.36
2023-01-03T10:47:59.949Z,11.38
2023-01-03T10:49:28.291Z,11.11
2023-01-03T10:50:31.234Z,11.22
2023-01-03T10:51:42.482Z,11.27
2023-01-03T10:52:45.695Z,10.93
2023-01-03T10:53:50.582Z,10.68
2023-01-03T10:54:55.884Z,10.35
2023-01-03T10:56:00.434Z,10.07
2023-01-03T10:57:02.913Z,9.81
2023-01-03T10:58:17.374Z,9.90
2023-01-03T10:59:23.237Z,10.00
2023-01-03T11:00:31.889Z,9.98
2023-01-03T11:01:34.526Z,9.94
2023-01-03T11:02:43.576Z,9.77
2023-01-03T11:03:51.442Z,9.68
2023-01-03T11:05:12.327Z,9.75
2023-01-03T11:06:16.240Z,9.89
2023-01-03T11:07:18.065Z,9.85
2023-01-03T11:08:23.545Z,9.89
2023-01-03T11:09:27.978Z,9.97
2023-01-03T11:10:37.005Z,9.65
2023-01-03T11:11:43.224Z,9.62
2023-01-03T11:12:46.880Z,9.58
2023-01-03T11:13:49.367Z,9.52
2023-01-03T11:14:53.042Z,9.37
2023-01-03T11:15:56.935Z,9.32
2023-01-03T11:17:02.095Z,9.48
2023-01-03T11:18:07.967Z,9.60
2023-01-03T11:19:19.239Z,9.77
2023-01-03T11:20:38.192Z,9.94
2023-01-03T11:21:49.272Z,10.09
2023-01-03T11:23:03.085Z,10.07
2023-01-03T11:24:14.387Z,10.10
2023-01-03T11:25:29.926Z,10.03
2023-01-03T11:26:44.232Z,10.00
2023-01-03T11:28:15.389Z,10.02
2023-01-03T11:29:36.113Z,9.93
2023-01-03T11:30:45.661Z,9.97
2023-01-03T11:31:52.985Z,9.94
2023-01-03T11:33:08.476Z,10.23
2023-01-03T11:34:25.188Z,10.31
2023-01-03T11:35:53.500Z,10.39
2023-01-03T11:37:01.815Z,10.28
2023-01-03T11:38:16.647Z,10.20
2023-01-03T11:39:42.655Z,10.12
2023-01-03T11:40:48.066Z,9.87
2023-01-03T11:42:06.667Z,9.89
2023-01-03T11:43:27.823Z,10.02
2023-01-03T11:45:22.578Z,9.98
2023-01-03T11:46:42.163Z,10.65
2023-01-03T11:47:51.700Z,11.72
2023-01-03T11:49:06.399Z,12.80
2023-01-03T11:50:27.750Z,14.01
2023-01-03T11:51:39.331Z,14.69
2023-01-03T11:52:48.469Z,15.84
2023-01-03T11:54:03.019Z,16.61
2023-01-03T11:55:35.170Z,17.26
2023-01-03T11:56:41.329Z,17.60
2023-01-03T11:57:55.663Z,17.83
2023-01-03T11:59:08.934Z,18.25
2023-01-03T12:00:18.512Z,18.31
2023-01-03T12:01:39.297Z,17.15
2023-01-03T12:03:03.653Z,16.83
2023-01-03T12:04:25.857Z,17.66
2023-01-03T12:05:49.135Z,18.67
2023-01-03T12:07:45.684Z,19.12
2023-01-03T12:09:05.889Z,18.92
2023-01-03T12:10:14.277Z,19.19
2023-01-03T12:11:55.278Z,18.92
2023-01-03T12:13:29.330Z,18.91
2023-01-03T12:14:39.777Z,18.17
2023-01-03T12:15:46.490Z,18.62
2023-01-03T12:16:57.382Z,18.57
2023-01-03T12:18:03.775Z,18.37
2023-01-03T12:19:14.365Z,19.10
2023-01-03T12:20:22.759Z,19.70
2023-01-03T12:21:34.844Z,19.83
2023-01-03T12:22:41.819Z,20.11
2023-01-03T12:23:46.647Z,18.66
2023-01-03T12:24:54.233Z,18.52
2023-01-03T12:26:05.191Z,18.14
2023-01-03T12:27:16.076Z,18.50
2023-01-03T12:28:24.820Z,19.24
2023-01-03T12:29:32.935Z,20.06
2023-01-03T12:30:41.315Z,19.84
2023-01-03T12:31:49.486Z,19.61
2023-01-03T12:32:56.866Z,20.36
2023-01-03T12:34:08.191Z,18.93
2023-01-03T12:35:26.506Z,18.94
2023-01-03T12:36:36.883Z,19.35
2023-01-03T12:37:42.441Z,20.05
2023-01-03T12:38:56.605Z,20.94
2023-01-03T12:40:02.462Z,21.11
2023-01-03T12:41:14.706Z,20.48
2023-01-03T12:42:24.369Z,20.58
2023-01-03T12:43:34.494Z,20.09
2023-01-03T12:44:40.495Z,20.26
2023-01-03T12:45:48.381Z,21.34
2023-01-03T12:46:53.133Z,22.26
2023-01-03T12:48:02.598Z,22.40
2023-01-03T12:49:13.199Z,21.50
2023-01-03T12:50:19.712Z,21.83
2023-01-03T12:51:25.283Z,20.00
2023-01-03T12:52:28.835Z,20.43
2023-01-03T12:53:37.778Z,19.84
2023-01-03T12:54:46.509Z,19.92
2023-01-03T12:56:06.587Z,19.90
2023-01-03T12:57:39.683Z,18.46
2023-01-03T12:58:52.937Z,19.10
2023-01-03T13:00:20.949Z,18.74
2023-01-03T13:01:29.626Z,19.06
2023-01-03T13:02:44.216Z,19.56
2023-01-03T13:03:50.985Z,19.80
2023-01-03T13:04:56.351Z,20.44
2023-01-03T13:06:03.747Z,21.05
2023-01-03T13:07:13.447Z,20.84
2023-01-03T13:08:23.490Z,20.29
2023-01-03T13:09:32.132Z,19.68
2023-01-03T13:10:38.374Z,19.82
2023-01-03T13:11:45.847Z,20.48
2023-01-03T13:12:52.876Z,21.10
2023-01-03T13:13:59.804Z,21.08
2023-01-03T13:15:16.792Z,20.32
2023-01-03T13:16:41.262Z,18.50
2023-01-03T13:17:44.700Z,17.87
2023-01-03T14:22:38.301Z,12.15
2023-01-03T14:24:01.653Z,12.31
2023-01-03T14:25:05.620Z,12.28
2023-01-03T14:26:15.000Z,12.23
2023-01-03T14:27:21.416Z,12.38
2023-01-03T14:28:26.108Z,12.43
2023-01-03T14:29:29.673Z,12.25
2023-01-03T14:30:34.276Z,12.02
2023-01-03T14:31:43.299Z,12.02
2023-01-03T14:32:46.105Z,12.09
2023-01-03T14:33:52.541Z,12.20
2023-01-03T14:34:55.779Z,12.21
2023-01-03T14:36:03.695Z,12.25
2023-01-03T14:37:08.473Z,12.23
2023-01-03T14:38:23.843Z,11.91
2023-01-03T14:40:34.395Z,11.85
2023-01-03T14:41:38.599Z,11.81
2023-01-03T14:42:45.924Z,11.58
2023-01-03T14:43:47.454Z,11.40
2023-01-03T14:44:57.035Z,11.23
2023-01-03T14:46:04.525Z,10.98
2023-01-03T14:47:15.284Z,10.89
2023-01-03T14:48:17.427Z,10.95
2023-01-03T14:49:23.988Z,11.16
2023-01-03T14:50:29.669Z,11.35
2023-01-03T14:51:34.362Z,11.39
2023-01-03T14:52:40.906Z,11.23
2023-01-03T14:53:46.898Z,11.00
2023-01-03T14:54:56.122Z,10.92
2023-01-03T14:56:01.878Z,11.05
2023-01-03T14:57:05.768Z,11.02
2023-01-03T14:58:24.592Z,10.91
2023-01-03T14:59:27.524Z,10.61
2023-01-03T15:00:33.348Z,10.61
2023-01-03T15:01:37.228Z,10.76
2023-01-03T15:02:42.102Z,10.87
2023-01-03T15:03:47.996Z,10.92
2023-01-03T15:04:53.496Z,10.98
2023-01-03T15:06:00.452Z,10.99
2023-01-03T15:07:12.725Z,10.82
2023-01-03T15:08:23.350Z,10.52
2023-01-03T15:09:26.826Z,10.55
2023-01-03T15:10:36.669Z,10.27
2023-01-03T15:11:56.373Z,10.26
2023-01-03T15:13:04.528Z,9.73
2023-01-03T15:14:08.148Z,9.72
2023-01-03T15:15:20.273Z,9.87
2023-01-03T15:16:26.799Z,10.03
2023-01-03T15:17:29.810Z,9.66
2023-01-03T15:18:36.235Z,9.57
2023-01-03T15:19:41.935Z,9.33
2023-01-03T15:20:45.183Z,9.56
2023-01-03T15:21:48.393Z,9.37
2023-01-03T15:22:51.181Z,9.62
2023-01-03T15:23:54.644Z,9.46
2023-01-03T15:25:05.400Z,8.84
2023-01-03T15:26:19.385Z,8.56
2023-01-03T15:27:45.107Z,7.55
2023-01-03T15:28:53.814Z,7.49
2023-01-03T15:29:55.331Z,7.57
2023-01-03T15:31:13.071Z,7.42
2023-01-03T15:32:20.300Z,7.70
2023-01-03T15:33:33.114Z,7.98
2023-01-03T15:34:41.954Z,8.21
2023-01-03T15:35:43.834Z,8.25
2023-01-03T15:36:50.255Z,7.96
2023-01-03T15:37:54.190Z,7.64
2023-01-03T15:38:56.986Z,7.33
2023-01-03T15:40:05.478Z,7.19
2023-01-03T15:41:17.136Z,6.88
2023-01-03T15:42:50.129Z,6.62
2023-01-03T15:43:56.358Z,6.31
2023-01-03T15:44:59.372Z,6.59
2023-01-03T15:46:03.468Z,6.61
2023-01-03T15:47:08.542Z,6.41
2023-01-03T15:48:17.771Z,6.37
2023-01-03T15:49:24.538Z,6.46
2023-01-03T15:50:39.091Z,6.44
2023-01-03T15:51:42.091Z,6.50
2023-01-03T15:52:44.228Z,6.37
2023-01-03T15:53:48.215Z,6.32
2023-01-03T15:54:49.866Z,6.39
2023-01-03T15:55:57.719Z,6.24